Pagina principală
METAR-TAF:

METAR-TAF

Aeroporturi :

Graham Municipal Airport

Graham, Texas, Statele Unite ale Americii

Latitudine: 33-06-36N, longitudine: 098-33-19W, elevație: 342 m

Observații meteo curente

Raportul a fost făcut în urmă cu 38 de minute, la 16:15 UTC
Vânt 5 kt din direcții variabile
Temperatură 27°C
Umiditate 66%
Presiune 1011 hPa
Vizibilitate: 16.1 km
Cer senin

METAR: KRPH 181615Z AUTO VRB05KT 10SM CLR 27/20 A2985 RMK AO2 T02750198

Ora: 11:53 (16:53 UTC)


TAF: lipsă

Observații și prognoze meteo pentru peste 4.000 de aeroporturi (rapoarte METAR și TAF).

Stațiile disponibile sunt reprezentate pe hartă prin puncte galbene și roșii.

Țineți indicatorul mouse-ului pe punctul dorit pentru a vedea denumirea stației.

Apoi, faceți clic pentru a vedea observațiile și prognozele meteorologice.

Pentru a schimba harta: Pentru mărire, faceți clic pe butoanele verzi cu cruce neagră; pentru micșorare, pe butonul verde cu o liniuță; pentru hărți învecinate, pe săgețile verzi.


METAR-TAF: